createdAt,value
2018-12-11T00:00:03.372Z,5.00
2018-12-11T00:02:34.871Z,4.40
2018-12-11T00:05:06.505Z,5.90
2018-12-11T00:07:35.827Z,6.00
2018-12-11T00:10:05.522Z,3.30
2018-12-11T00:12:35.205Z,1.30
2018-12-11T00:15:04.668Z,1.63
2018-12-11T00:17:33.809Z,1.57
2018-12-11T00:20:04.521Z,9.20
2018-12-11T00:22:33.840Z,2.77
2018-12-11T00:25:03.644Z,1.77
2018-12-11T00:27:33.261Z,3.10
2018-12-11T00:30:02.755Z,2.27
2018-12-11T00:32:32.494Z,2.20
2018-12-11T00:35:02.051Z,4.20
2018-12-11T00:37:31.464Z,2.00
2018-12-11T00:40:01.112Z,1.80
2018-12-11T00:42:30.869Z,2.00
2018-12-11T00:45:00.402Z,2.57
2018-12-11T00:47:29.904Z,2.60
2018-12-11T00:49:59.247Z,3.40
2018-12-11T00:52:28.689Z,2.40
2018-12-11T00:54:58.238Z,2.47
2018-12-11T00:57:27.714Z,2.27
2018-12-11T00:59:57.200Z,2.10
2018-12-11T01:02:26.509Z,3.13
2018-12-11T01:04:56.073Z,1.90
2018-12-11T01:07:25.529Z,1.87
2018-12-11T01:09:54.845Z,4.83
2018-12-11T01:12:24.111Z,2.00
2018-12-11T01:14:53.502Z,11.50
2018-12-11T01:17:23.148Z,10.83
2018-12-11T01:19:52.656Z,6.40
2018-12-11T01:22:22.093Z,11.73
2018-12-11T01:24:51.719Z,7.90
2018-12-11T01:27:21.426Z,6.83
2018-12-11T01:29:51.279Z,7.27
2018-12-11T01:32:20.443Z,10.33
2018-12-11T01:34:49.895Z,10.33
2018-12-11T01:37:19.270Z,7.83
2018-12-11T01:39:48.675Z,7.97
2018-12-11T01:42:18.636Z,8.53
2018-12-11T01:44:48.102Z,6.90
2018-12-11T01:47:17.412Z,13.80
2018-12-11T01:49:46.863Z,12.37
2018-12-11T01:52:17.434Z,9.10
2018-12-11T01:54:46.890Z,12.53
2018-12-11T01:57:16.408Z,9.10
2018-12-11T01:59:45.722Z,10.13
2018-12-11T02:02:15.030Z,11.73
2018-12-11T02:04:44.323Z,9.03
2018-12-11T02:07:14.080Z,11.20
2018-12-11T02:09:43.556Z,10.40
2018-12-11T02:12:12.977Z,17.80
2018-12-11T02:14:42.455Z,8.93
2018-12-11T02:17:12.394Z,10.93
2018-12-11T02:19:41.873Z,12.30
2018-12-11T02:22:11.179Z,18.57
2018-12-11T02:24:40.557Z,11.80
2018-12-11T02:27:09.988Z,24.07
2018-12-11T02:29:39.270Z,10.80
2018-12-11T02:32:08.597Z,11.70
2018-12-11T02:34:37.959Z,13.10
2018-12-11T02:37:07.425Z,9.97
2018-12-11T02:39:37.277Z,11.60
2018-12-11T02:42:06.797Z,11.77
2018-12-11T02:44:36.153Z,13.53
2018-12-11T02:47:05.598Z,15.10
2018-12-11T02:49:35.009Z,10.97
2018-12-11T02:52:04.398Z,12.27
2018-12-11T02:54:33.895Z,23.13
2018-12-11T02:57:04.134Z,13.13
2018-12-11T02:59:33.568Z,18.83
2018-12-11T03:02:04.025Z,12.10
2018-12-11T03:04:35.898Z,14.87
2018-12-11T03:07:05.414Z,12.83
2018-12-11T03:09:35.091Z,14.80
2018-12-11T03:12:04.594Z,13.73
2018-12-11T03:14:34.042Z,11.60
2018-12-11T03:17:04.146Z,10.23
2018-12-11T03:19:33.685Z,13.03
2018-12-11T03:22:04.096Z,14.77
2018-12-11T03:24:34.326Z,14.83
2018-12-11T03:27:03.897Z,13.43
2018-12-11T03:29:33.427Z,8.47
2018-12-11T03:32:03.353Z,14.30
2018-12-11T03:34:33.944Z,10.20
2018-12-11T03:37:04.202Z,13.90
2018-12-11T03:39:33.493Z,13.53
2018-12-11T03:42:03.164Z,12.60
2018-12-11T03:44:32.705Z,20.33
2018-12-11T03:47:02.644Z,16.30
2018-12-11T03:49:31.903Z,13.40
2018-12-11T03:52:01.819Z,7.20
2018-12-11T03:54:31.710Z,10.93
2018-12-11T03:57:01.397Z,17.90
2018-12-11T03:59:30.922Z,12.33
2018-12-11T04:02:00.258Z,10.30
2018-12-11T04:04:29.936Z,9.30
2018-12-11T04:06:59.363Z,11.70
2018-12-11T04:09:28.644Z,12.60
2018-12-11T04:11:58.230Z,13.17
2018-12-11T04:14:27.869Z,10.87
2018-12-11T04:16:57.278Z,14.70
2018-12-11T04:19:26.546Z,12.63
2018-12-11T04:21:55.900Z,11.13
2018-12-11T04:24:25.341Z,11.93
2018-12-11T04:26:56.829Z,11.23
2018-12-11T04:29:26.019Z,11.50
2018-12-11T04:31:55.781Z,12.43
2018-12-11T04:34:25.215Z,12.43
2018-12-11T04:36:54.561Z,16.93
2018-12-11T04:39:24.129Z,12.47
2018-12-11T04:41:53.647Z,15.57
2018-12-11T04:44:23.346Z,14.23
2018-12-11T04:46:52.941Z,17.97
2018-12-11T04:49:22.360Z,17.30
2018-12-11T04:51:51.856Z,17.33
2018-12-11T04:54:21.462Z,19.90
2018-12-11T04:56:51.079Z,13.77
2018-12-11T04:59:20.617Z,16.10
2018-12-11T05:01:50.176Z,14.70
2018-12-11T05:04:19.577Z,12.87
2018-12-11T05:06:48.961Z,15.70
2018-12-11T05:09:18.361Z,18.40
2018-12-11T05:11:47.786Z,22.07
2018-12-11T05:14:17.191Z,18.60
2018-12-11T05:16:47.001Z,13.73
2018-12-11T05:19:16.364Z,25.70
2018-12-11T05:21:45.803Z,15.67
2018-12-11T05:24:15.660Z,17.30
2018-12-11T05:26:44.912Z,14.93
2018-12-11T05:29:14.237Z,19.23
2018-12-11T05:31:44.321Z,23.33
2018-12-11T05:34:13.652Z,21.23
2018-12-11T05:36:43.121Z,19.87
2018-12-11T05:39:12.443Z,20.37
2018-12-11T05:41:42.146Z,13.50
2018-12-11T05:44:11.828Z,18.23
2018-12-11T05:46:41.266Z,23.47
2018-12-11T05:49:10.595Z,25.27
2018-12-11T05:51:39.963Z,21.70
2018-12-11T05:54:09.266Z,22.40
2018-12-11T05:56:38.559Z,36.07
2018-12-11T05:59:07.951Z,26.50
2018-12-11T06:01:37.423Z,21.07
2018-12-11T06:04:06.852Z,16.30
2018-12-11T06:06:36.374Z,22.50
2018-12-11T06:09:07.325Z,21.90
2018-12-11T06:11:36.614Z,21.00
2018-12-11T06:14:06.196Z,20.30
2018-12-11T06:16:35.893Z,22.80
2018-12-11T06:19:06.206Z,20.13
2018-12-11T06:21:35.664Z,23.87
2018-12-11T06:24:05.156Z,22.87
2018-12-11T06:26:34.498Z,29.17
2018-12-11T06:29:04.116Z,14.13
2018-12-11T06:31:33.677Z,17.47
2018-12-11T06:34:03.718Z,15.37
2018-12-11T06:36:33.238Z,17.83
2018-12-11T06:39:03.432Z,18.03
2018-12-11T06:41:35.072Z,15.50
2018-12-11T06:44:04.622Z,21.43
2018-12-11T06:46:34.495Z,21.30
2018-12-11T06:49:04.222Z,31.30
2018-12-11T06:51:33.762Z,26.20
2018-12-11T06:54:04.190Z,24.53
2018-12-11T06:56:33.505Z,29.50
2018-12-11T06:59:02.809Z,21.93
2018-12-11T07:01:32.456Z,15.17
2018-12-11T07:04:02.362Z,19.40
2018-12-11T07:06:31.671Z,16.60
2018-12-11T07:09:01.658Z,14.37
2018-12-11T07:11:32.998Z,65.67
2018-12-11T07:14:02.479Z,34.63
2018-12-11T07:16:31.779Z,31.67
2018-12-11T07:19:01.331Z,27.10
2018-12-11T07:21:30.832Z,32.03
2018-12-11T07:24:00.141Z,14.77
2018-12-11T07:26:29.899Z,14.43
2018-12-11T07:28:59.541Z,11.40
2018-12-11T07:31:28.821Z,25.87
2018-12-11T07:33:58.337Z,25.43
2018-12-11T07:36:28.748Z,25.93
2018-12-11T07:38:58.451Z,15.30
2018-12-11T07:41:27.936Z,13.13
2018-12-11T07:43:57.658Z,22.13
2018-12-11T07:46:27.067Z,22.83
2018-12-11T07:48:56.396Z,33.33
2018-12-11T07:51:25.933Z,23.10
2018-12-11T07:53:55.447Z,39.40
2018-12-11T07:56:25.067Z,30.73
2018-12-11T07:58:54.419Z,23.93
2018-12-11T08:01:23.890Z,28.53
2018-12-11T08:03:53.490Z,32.17
2018-12-11T08:06:22.925Z,36.80
2018-12-11T08:08:52.671Z,39.50
2018-12-11T08:11:22.586Z,42.13
2018-12-11T08:13:52.123Z,26.73
2018-12-11T08:16:21.790Z,31.37
2018-12-11T08:18:51.516Z,26.30
2018-12-11T08:21:20.944Z,19.53
2018-12-11T08:23:50.271Z,20.97
2018-12-11T08:26:19.609Z,24.97
2018-12-11T08:28:49.038Z,21.57
2018-12-11T08:31:18.384Z,33.73
2018-12-11T08:33:47.638Z,27.43
2018-12-11T08:36:17.249Z,20.60
2018-12-11T08:38:46.653Z,29.13
2018-12-11T08:41:16.185Z,37.63
2018-12-11T08:43:45.862Z,26.10
2018-12-11T08:46:15.314Z,31.07
2018-12-11T08:48:44.755Z,23.93
2018-12-11T08:51:14.297Z,28.73
2018-12-11T08:53:43.799Z,17.03
2018-12-11T08:56:13.328Z,21.67
2018-12-11T08:58:42.786Z,20.97
2018-12-11T09:01:12.189Z,20.83
2018-12-11T09:03:41.595Z,15.70
2018-12-11T09:06:11.125Z,20.70
2018-12-11T09:08:41.107Z,13.70
2018-12-11T09:11:10.597Z,21.47
2018-12-11T09:13:40.031Z,26.67
2018-12-11T09:16:09.365Z,84.03
2018-12-11T09:18:38.814Z,25.40
2018-12-11T09:21:08.262Z,17.53
2018-12-11T09:23:38.348Z,20.13
2018-12-11T09:26:07.919Z,11.23
2018-12-11T09:28:39.424Z,12.47
2018-12-11T09:31:08.929Z,7.47
2018-12-11T09:33:38.193Z,11.27
2018-12-11T09:36:07.698Z,9.57
2018-12-11T09:38:37.236Z,11.97
2018-12-11T09:41:06.605Z,11.23
2018-12-11T09:43:36.250Z,10.93
2018-12-11T09:46:05.596Z,12.83
2018-12-11T09:48:34.945Z,13.50
2018-12-11T09:51:04.451Z,10.17
2018-12-11T09:53:33.953Z,13.30
2018-12-11T09:56:04.047Z,35.83
2018-12-11T09:58:33.494Z,13.17
2018-12-11T10:01:03.159Z,13.40
2018-12-11T10:03:33.191Z,11.33
2018-12-11T10:06:02.793Z,9.53
2018-12-11T10:08:32.757Z,11.03
2018-12-11T10:11:02.974Z,10.50
2018-12-11T10:13:32.438Z,6.67
2018-12-11T10:16:01.936Z,10.73
2018-12-11T10:18:31.486Z,14.97
2018-12-11T10:21:01.588Z,12.23
2018-12-11T10:23:31.974Z,11.97
2018-12-11T10:26:01.468Z,12.50
2018-12-11T10:28:31.550Z,12.60
2018-12-11T10:31:02.450Z,26.20
2018-12-11T10:33:32.738Z,6.43
2018-12-11T10:36:03.413Z,9.07
2018-12-11T10:38:33.745Z,6.33
2018-12-11T10:41:04.108Z,14.27
2018-12-11T10:43:34.541Z,6.27
2018-12-11T10:46:05.339Z,5.47
2018-12-11T10:48:36.295Z,16.20
2018-12-11T10:51:07.572Z,43.17
2018-12-11T10:53:37.706Z,19.37
2018-12-11T10:56:07.862Z,10.37
2018-12-11T10:58:38.130Z,9.03
2018-12-11T11:01:13.064Z,12.13
2018-12-11T11:03:43.191Z,5.20
2018-12-11T11:06:13.298Z,6.27
2018-12-11T11:08:44.216Z,9.00
2018-12-11T11:11:14.229Z,12.03
2018-12-11T11:13:44.303Z,6.50
2018-12-11T11:16:15.324Z,11.30
2018-12-11T11:18:45.773Z,11.13
2018-12-11T11:21:15.853Z,6.30
2018-12-11T11:23:45.863Z,5.43
2018-12-11T11:26:16.715Z,2.83
2018-12-11T11:28:46.763Z,5.33
2018-12-11T11:31:16.885Z,4.90
2018-12-11T11:33:46.988Z,5.50
2018-12-11T11:36:17.071Z,4.53
2018-12-11T11:38:47.119Z,5.93
2018-12-11T11:41:17.332Z,6.97
2018-12-11T11:43:47.495Z,3.87
2018-12-11T11:46:18.235Z,6.37
2018-12-11T11:48:48.360Z,5.70
2018-12-11T11:51:18.432Z,11.03
2018-12-11T11:53:48.884Z,5.27
2018-12-11T11:56:18.961Z,10.20
2018-12-11T11:58:50.325Z,5.67
2018-12-11T12:01:20.748Z,8.10
2018-12-11T12:03:50.708Z,7.07
2018-12-11T12:06:21.027Z,8.30
2018-12-11T12:08:51.434Z,8.00
2018-12-11T12:11:21.390Z,4.30
2018-12-11T12:13:51.360Z,5.87
2018-12-11T12:16:21.551Z,6.47
2018-12-11T12:18:51.913Z,5.53
2018-12-11T12:21:21.777Z,7.80
2018-12-11T12:23:52.397Z,7.23
2018-12-11T12:26:22.602Z,8.37
2018-12-11T12:28:53.246Z,19.03
2018-12-11T12:31:24.401Z,10.40
2018-12-11T12:33:54.322Z,12.80
2018-12-11T12:36:25.049Z,12.13
2018-12-11T12:38:55.257Z,9.47
2018-12-11T12:41:25.152Z,19.77
2018-12-11T12:43:55.634Z,12.77
2018-12-11T12:46:26.123Z,12.13
2018-12-11T12:48:56.638Z,11.63
2018-12-11T12:51:26.740Z,12.87
2018-12-11T12:53:58.284Z,10.17
2018-12-11T12:56:28.551Z,25.97
2018-12-11T12:58:58.614Z,14.87
2018-12-11T13:01:28.576Z,15.13
2018-12-11T13:03:58.742Z,11.53
2018-12-11T13:06:28.926Z,34.43
2018-12-11T13:08:59.448Z,8.70
2018-12-11T13:11:29.609Z,8.30
2018-12-11T13:14:00.002Z,10.47
2018-12-11T13:16:31.399Z,13.13
2018-12-11T13:19:01.622Z,7.40
2018-12-11T13:21:31.706Z,16.50
2018-12-11T13:24:01.710Z,7.10
2018-12-11T13:26:31.868Z,8.77
2018-12-11T13:29:01.861Z,9.50
2018-12-11T13:31:31.921Z,13.37
2018-12-11T13:34:02.066Z,7.87
2018-12-11T13:36:32.387Z,7.13
2018-12-11T13:39:03.598Z,7.13
2018-12-11T13:41:35.623Z,8.47
2018-12-11T13:44:06.362Z,6.50
2018-12-11T13:46:36.745Z,13.50
2018-12-11T13:49:07.014Z,14.60
2018-12-11T13:51:37.135Z,13.60
2018-12-11T13:54:07.147Z,9.47
2018-12-11T13:56:37.397Z,17.60
2018-12-11T13:59:07.509Z,10.63
2018-12-11T14:01:37.651Z,13.33
2018-12-11T14:04:07.917Z,15.63
2018-12-11T14:06:38.211Z,14.20
2018-12-11T14:09:13.865Z,19.20
2018-12-11T14:11:43.953Z,23.63
2018-12-11T14:14:13.977Z,18.47
2018-12-11T14:16:44.205Z,16.83
2018-12-11T14:19:14.165Z,21.03
2018-12-11T14:21:44.381Z,12.70
2018-12-11T14:24:14.386Z,14.93
2018-12-11T14:26:44.740Z,14.43
2018-12-11T14:29:15.174Z,14.30
2018-12-11T14:31:46.582Z,18.27
2018-12-11T14:34:16.707Z,12.77
2018-12-11T14:36:46.926Z,10.07
2018-12-11T14:39:19.244Z,18.13
2018-12-11T14:41:49.625Z,15.20
2018-12-11T14:44:19.757Z,27.27
2018-12-11T14:46:50.869Z,17.57
2018-12-11T14:49:21.309Z,11.23
2018-12-11T14:51:51.675Z,12.20
2018-12-11T14:54:22.135Z,14.27
2018-12-11T14:56:52.297Z,11.37
2018-12-11T14:59:22.373Z,10.40
2018-12-11T15:01:52.996Z,12.90
2018-12-11T15:04:23.305Z,10.30
2018-12-11T15:06:53.669Z,10.70
2018-12-11T15:09:29.163Z,13.10
2018-12-11T15:11:59.135Z,15.93
2018-12-11T15:14:29.461Z,17.80
2018-12-11T15:17:00.377Z,13.10
2018-12-11T15:19:30.499Z,15.03
2018-12-11T15:22:00.919Z,18.97
2018-12-11T15:24:31.310Z,15.47
2018-12-11T15:27:01.469Z,15.83
2018-12-11T15:29:31.677Z,17.50
2018-12-11T15:32:01.707Z,18.80
2018-12-11T15:34:31.953Z,15.70
2018-12-11T15:37:02.394Z,20.40
2018-12-11T15:39:35.773Z,32.17
2018-12-11T15:42:04.892Z,24.33
2018-12-11T15:44:35.717Z,20.57
2018-12-11T15:47:06.028Z,17.57
2018-12-11T15:49:36.568Z,21.70
2018-12-11T15:52:06.694Z,19.33
2018-12-11T15:54:36.789Z,21.40
2018-12-11T15:57:06.955Z,19.43
2018-12-11T15:59:36.924Z,19.13
2018-12-11T16:02:07.232Z,17.30
2018-12-11T16:04:37.493Z,13.40
2018-12-11T16:07:07.630Z,15.37
2018-12-11T16:09:37.977Z,15.30
2018-12-11T16:12:08.131Z,14.50
2018-12-11T16:14:38.205Z,14.40
2018-12-11T16:17:08.177Z,12.40
2018-12-11T16:19:38.340Z,19.10
2018-12-11T16:22:08.451Z,17.40
2018-12-11T16:24:38.611Z,22.13
2018-12-11T16:27:08.683Z,20.40
2018-12-11T16:29:38.869Z,20.00
2018-12-11T16:32:09.102Z,19.07
2018-12-11T16:34:39.213Z,21.87
2018-12-11T16:37:10.176Z,19.53
2018-12-11T16:39:40.319Z,57.60
2018-12-11T16:42:11.241Z,18.83
2018-12-11T16:44:41.821Z,22.90
2018-12-11T16:47:12.011Z,15.50
2018-12-11T16:49:42.712Z,18.67
2018-12-11T16:52:12.933Z,16.93
2018-12-11T16:54:43.155Z,14.77
2018-12-11T16:57:13.188Z,20.03
2018-12-11T16:59:43.282Z,14.40
2018-12-11T17:02:13.547Z,16.50
2018-12-11T17:04:43.650Z,17.50
2018-12-11T17:07:14.218Z,27.53
2018-12-11T17:09:44.572Z,23.17
2018-12-11T17:12:14.854Z,15.33
2018-12-11T17:14:45.383Z,16.47
2018-12-11T17:17:15.797Z,17.27
2018-12-11T17:19:45.742Z,32.43
2018-12-11T17:22:15.627Z,19.93
2018-12-11T17:24:45.851Z,23.60
2018-12-11T17:27:16.109Z,27.47
2018-12-11T17:29:46.371Z,23.97
2018-12-11T17:32:16.253Z,18.20
2018-12-11T17:34:47.305Z,22.87
2018-12-11T17:37:18.549Z,16.87
2018-12-11T17:39:49.641Z,30.03
2018-12-11T17:42:20.495Z,24.23
2018-12-11T17:44:51.860Z,18.83
2018-12-11T17:47:22.928Z,27.93
2018-12-11T17:49:53.206Z,39.73
2018-12-11T17:52:23.381Z,14.83
2018-12-11T17:54:53.584Z,18.07
2018-12-11T17:57:23.774Z,15.80
2018-12-11T17:59:54.297Z,14.57
2018-12-11T18:02:30.195Z,25.00
2018-12-11T18:05:00.362Z,18.33
2018-12-11T18:07:30.630Z,21.63
2018-12-11T18:10:00.613Z,17.63
2018-12-11T18:12:31.437Z,18.10
2018-12-11T18:15:01.552Z,15.63
2018-12-11T18:17:33.721Z,33.50
2018-12-11T18:20:04.006Z,26.70
2018-12-11T18:22:34.229Z,30.50
2018-12-11T18:25:05.044Z,42.60
2018-12-11T18:27:36.460Z,38.17
2018-12-11T18:30:06.773Z,78.33
2018-12-11T18:32:37.134Z,68.23
2018-12-11T18:35:08.407Z,62.50
2018-12-11T18:37:38.689Z,67.63
2018-12-11T18:40:09.970Z,32.80
2018-12-11T18:42:40.251Z,45.33
2018-12-11T18:45:10.558Z,44.97
2018-12-11T18:47:41.921Z,54.20
2018-12-11T18:50:12.198Z,72.50
2018-12-11T18:52:42.382Z,46.50
2018-12-11T18:55:12.643Z,44.50
2018-12-11T18:57:42.878Z,50.37
2018-12-11T19:00:13.390Z,28.20
2018-12-11T19:02:45.235Z,19.23
2018-12-11T19:05:15.754Z,16.20
2018-12-11T19:07:45.976Z,15.57
2018-12-11T19:10:18.377Z,21.90
2018-12-11T19:12:48.678Z,49.30
2018-12-11T19:15:18.977Z,54.97
2018-12-11T19:17:49.523Z,38.60
2018-12-11T19:20:19.926Z,102.77
2018-12-11T19:22:50.632Z,54.13
2018-12-11T19:25:21.646Z,24.77
2018-12-11T19:27:52.086Z,23.30
2018-12-11T19:30:22.362Z,15.60
2018-12-11T19:32:54.665Z,20.00
2018-12-11T19:35:32.839Z,16.43
2018-12-11T19:38:01.917Z,17.37
2018-12-11T19:40:33.299Z,17.30
2018-12-11T19:43:06.895Z,21.30
2018-12-11T19:45:35.889Z,17.93
2018-12-11T19:48:05.996Z,15.17
2018-12-11T19:50:36.397Z,20.23
2018-12-11T19:53:06.344Z,15.20
2018-12-11T19:55:37.021Z,14.73
2018-12-11T19:58:07.637Z,17.10
2018-12-11T20:00:38.097Z,19.80
2018-12-11T20:03:10.783Z,17.33
2018-12-11T20:05:40.826Z,18.60
2018-12-11T20:08:10.979Z,16.40
2018-12-11T20:10:41.011Z,17.93
2018-12-11T20:13:11.685Z,20.47
2018-12-11T20:15:42.172Z,24.70
2018-12-11T20:18:13.002Z,16.60
2018-12-11T20:20:44.319Z,18.60
2018-12-11T20:23:14.501Z,21.00
2018-12-11T20:25:45.000Z,20.80
2018-12-11T20:28:15.444Z,19.00
2018-12-11T20:30:45.612Z,17.93
2018-12-11T20:33:16.367Z,16.53
2018-12-11T20:35:46.878Z,20.90
2018-12-11T20:38:17.289Z,18.27
2018-12-11T20:40:47.503Z,16.10
2018-12-11T20:43:18.314Z,13.77
2018-12-11T20:45:49.002Z,16.13
2018-12-11T20:48:20.368Z,14.23
2018-12-11T20:50:50.422Z,7.80
2018-12-11T20:53:20.748Z,10.43
2018-12-11T20:55:51.104Z,10.47
2018-12-11T20:58:21.163Z,14.60
2018-12-11T21:00:51.807Z,13.43
2018-12-11T21:03:22.121Z,9.63
2018-12-11T21:05:52.341Z,12.63
2018-12-11T21:08:25.055Z,15.03
2018-12-11T21:10:56.193Z,8.90
2018-12-11T21:13:26.254Z,10.47
2018-12-11T21:15:56.758Z,12.40
2018-12-11T21:18:27.204Z,12.30
2018-12-11T21:20:57.374Z,15.37
2018-12-11T21:23:27.602Z,12.33
2018-12-11T21:25:57.559Z,12.63
2018-12-11T21:28:27.930Z,10.57
2018-12-11T21:30:58.214Z,12.67
2018-12-11T21:33:28.421Z,14.27
2018-12-11T21:35:59.072Z,11.47
2018-12-11T21:38:29.226Z,12.80
2018-12-11T21:40:59.746Z,12.50
2018-12-11T21:43:30.297Z,12.83
2018-12-11T21:46:00.298Z,17.23
2018-12-11T21:48:32.077Z,13.50
2018-12-11T21:51:02.335Z,14.43
2018-12-11T21:53:32.486Z,14.43
2018-12-11T21:56:02.492Z,11.53
2018-12-11T21:58:32.885Z,15.00
2018-12-11T22:01:02.837Z,12.47
2018-12-11T22:03:33.650Z,11.83
2018-12-11T22:06:04.081Z,16.07
2018-12-11T22:08:34.372Z,11.70
2018-12-11T22:11:04.409Z,12.47
2018-12-11T22:13:34.584Z,11.80
2018-12-11T22:16:04.822Z,12.13
2018-12-11T22:18:35.225Z,13.97
2018-12-11T22:21:05.204Z,20.53
2018-12-11T22:23:35.275Z,12.77
2018-12-11T22:26:05.425Z,13.40
2018-12-11T22:28:35.819Z,14.47
2018-12-11T22:31:05.854Z,16.00
2018-12-11T22:33:36.298Z,14.47
2018-12-11T22:36:06.590Z,13.37
2018-12-11T22:38:36.885Z,13.23
2018-12-11T22:41:06.965Z,14.27
2018-12-11T22:43:37.150Z,12.73
2018-12-11T22:46:07.215Z,16.63
2018-12-11T22:48:37.398Z,12.30
2018-12-11T22:51:07.844Z,15.03
2018-12-11T22:53:37.794Z,17.27
2018-12-11T22:56:07.741Z,14.43
2018-12-11T22:58:38.445Z,15.10
2018-12-11T23:01:08.611Z,11.83
2018-12-11T23:03:40.677Z,18.70
2018-12-11T23:06:10.923Z,17.60
2018-12-11T23:08:40.850Z,12.03
2018-12-11T23:11:10.801Z,19.47
2018-12-11T23:13:40.589Z,18.87
2018-12-11T23:16:10.751Z,18.30
2018-12-11T23:18:41.063Z,22.27
2018-12-11T23:21:11.239Z,18.43
2018-12-11T23:23:41.450Z,19.57
2018-12-11T23:26:11.589Z,17.77
2018-12-11T23:28:41.579Z,20.37
2018-12-11T23:31:11.745Z,14.63
2018-12-11T23:33:41.896Z,16.97
2018-12-11T23:36:11.776Z,18.23
2018-12-11T23:38:41.733Z,20.40
2018-12-11T23:41:11.711Z,18.13
2018-12-11T23:43:42.149Z,18.30
2018-12-11T23:46:12.708Z,20.00
2018-12-11T23:48:42.989Z,20.30
2018-12-11T23:51:12.978Z,21.43
2018-12-11T23:53:43.021Z,14.47
2018-12-11T23:56:13.029Z,18.77
2018-12-11T23:58:43.046Z,18.47
